createdAt,value
2019-05-25T00:00:17.398Z,38.81
2019-05-25T00:01:17.393Z,38.78
2019-05-25T00:02:17.384Z,38.63
2019-05-25T00:03:17.378Z,38.61
2019-05-25T00:04:17.393Z,38.55
2019-05-25T00:05:17.389Z,38.64
2019-05-25T00:06:17.381Z,38.51
2019-05-25T00:07:17.374Z,38.47
2019-05-25T00:08:17.367Z,38.47
2019-05-25T00:09:17.368Z,38.52
2019-05-25T00:10:17.353Z,38.76
2019-05-25T00:11:17.345Z,39.46
2019-05-25T00:12:17.340Z,38.49
2019-05-25T00:13:17.337Z,38.90
2019-05-25T00:14:17.327Z,38.56
2019-05-25T00:15:17.321Z,38.58
2019-05-25T00:16:17.313Z,38.55
2019-05-25T00:17:17.334Z,38.52
2019-05-25T00:18:17.301Z,38.73
2019-05-25T00:19:17.314Z,38.54
2019-05-25T00:20:17.306Z,38.52
2019-05-25T00:21:17.299Z,38.80
2019-05-25T00:22:17.291Z,38.69
2019-05-25T00:23:17.289Z,38.51
2019-05-25T00:24:17.284Z,38.90
2019-05-25T00:25:17.276Z,39.63
2019-05-25T00:26:17.270Z,38.63
2019-05-25T00:27:17.272Z,38.48
2019-05-25T00:28:17.257Z,38.74
2019-05-25T00:29:17.257Z,38.96
2019-05-25T00:30:17.243Z,38.52
2019-05-25T00:31:17.237Z,38.58
2019-05-25T00:32:17.232Z,38.67
2019-05-25T00:33:17.223Z,38.76
2019-05-25T00:34:17.217Z,38.94
2019-05-25T00:35:17.211Z,38.53
2019-05-25T00:36:17.205Z,38.61
2019-05-25T00:37:17.247Z,38.53
2019-05-25T00:38:17.197Z,38.53
2019-05-25T00:39:17.186Z,38.57
2019-05-25T00:40:17.176Z,38.51
2019-05-25T00:41:17.176Z,38.63
2019-05-25T00:42:17.167Z,38.70
2019-05-25T00:43:17.159Z,38.39
2019-05-25T00:44:17.149Z,38.37
2019-05-25T00:45:17.145Z,38.41
2019-05-25T00:46:17.138Z,39.01
2019-05-25T00:47:17.133Z,38.61
2019-05-25T00:48:17.127Z,38.45
2019-05-25T00:49:17.119Z,38.43
2019-05-25T00:50:17.115Z,38.54
2019-05-25T00:51:17.112Z,38.64
2019-05-25T00:52:17.115Z,38.99
2019-05-25T00:53:17.099Z,38.35
2019-05-25T00:54:27.416Z,38.31
2019-05-25T00:56:44.870Z,38.42
2019-05-25T00:57:44.861Z,38.46
2019-05-25T00:58:44.852Z,38.80
2019-05-25T00:59:44.847Z,38.51
2019-05-25T01:00:44.842Z,38.41
2019-05-25T01:01:44.839Z,38.37
2019-05-25T01:02:44.896Z,38.38
2019-05-25T01:03:44.818Z,38.65
2019-05-25T01:04:44.813Z,38.97
2019-05-25T01:05:44.804Z,38.55
2019-05-25T01:06:44.800Z,38.58
2019-05-25T01:07:44.794Z,38.45
2019-05-25T01:08:44.787Z,38.36
2019-05-25T01:09:44.781Z,38.42
2019-05-25T01:10:44.774Z,38.39
2019-05-25T01:11:44.770Z,38.55
2019-05-25T01:12:44.767Z,38.73
2019-05-25T01:13:44.761Z,38.35
2019-05-25T01:14:44.761Z,38.75
2019-05-25T01:15:44.753Z,38.33
2019-05-25T01:16:44.810Z,38.32
2019-05-25T01:17:44.743Z,38.50
2019-05-25T01:18:44.734Z,38.53
2019-05-25T01:19:44.727Z,38.52
2019-05-25T01:20:44.720Z,38.55
2019-05-25T01:21:44.712Z,38.51
2019-05-25T01:22:44.708Z,38.48
2019-05-25T01:23:44.697Z,38.52
2019-05-25T01:24:45.102Z,38.69
2019-05-25T01:25:44.684Z,38.66
2019-05-25T01:26:44.716Z,38.78
2019-05-25T01:27:44.672Z,38.54
2019-05-25T01:28:44.663Z,38.56
2019-05-25T01:29:44.662Z,38.56
2019-05-25T01:30:44.701Z,38.80
2019-05-25T01:31:44.645Z,38.87
2019-05-25T01:32:44.639Z,38.57
2019-05-25T01:33:44.633Z,38.52
2019-05-25T01:34:44.626Z,38.89
2019-05-25T01:35:44.626Z,38.63
2019-05-25T01:36:44.613Z,38.86
2019-05-25T01:37:48.259Z,38.60
2019-05-25T01:38:44.598Z,38.52
2019-05-25T01:39:44.596Z,38.51
2019-05-25T01:40:44.586Z,38.83
2019-05-25T01:41:44.582Z,38.87
2019-05-25T01:42:44.623Z,38.63
2019-05-25T01:43:44.565Z,38.59
2019-05-25T01:44:44.560Z,38.92
2019-05-25T01:45:44.554Z,38.63
2019-05-25T01:46:44.544Z,38.65
2019-05-25T01:47:44.548Z,38.75
2019-05-25T01:48:44.532Z,38.56
2019-05-25T01:49:44.525Z,38.57
2019-05-25T01:50:44.519Z,38.89
2019-05-25T01:51:44.512Z,38.55
2019-05-25T01:52:44.503Z,38.62
2019-05-25T01:53:44.497Z,38.64
2019-05-25T01:54:58.963Z,38.61
2019-05-25T01:57:12.204Z,38.73
2019-05-25T01:58:12.195Z,38.84
2019-05-25T01:59:12.191Z,38.52
2019-05-25T02:00:12.186Z,38.65
2019-05-25T02:01:12.180Z,38.60
2019-05-25T02:02:12.176Z,38.79
2019-05-25T02:03:12.170Z,38.55
2019-05-25T02:04:12.189Z,38.57
2019-05-25T02:05:12.158Z,38.57
2019-05-25T02:06:12.149Z,38.82
2019-05-25T02:07:12.144Z,38.76
2019-05-25T02:08:12.135Z,38.69
2019-05-25T02:09:12.129Z,38.89
2019-05-25T02:10:12.121Z,39.13
2019-05-25T02:11:12.114Z,38.60
2019-05-25T02:12:12.111Z,39.10
2019-05-25T02:13:12.100Z,38.55
2019-05-25T02:14:12.095Z,38.51
2019-05-25T02:15:12.090Z,38.53
2019-05-25T02:16:12.080Z,38.69
2019-05-25T02:17:12.074Z,38.55
2019-05-25T02:18:12.120Z,39.00
2019-05-25T02:19:12.063Z,38.53
2019-05-25T02:20:12.059Z,38.89
2019-05-25T02:21:12.051Z,38.58
2019-05-25T02:22:12.059Z,38.51
2019-05-25T02:23:12.040Z,38.62
2019-05-25T02:24:12.034Z,38.63
2019-05-25T02:25:18.038Z,39.03
2019-05-25T02:26:14.020Z,38.62
2019-05-25T02:27:12.015Z,38.58
2019-05-25T02:28:12.008Z,38.58
2019-05-25T02:29:12.005Z,38.74
2019-05-25T02:30:12.072Z,38.97
2019-05-25T02:31:12.010Z,38.59
2019-05-25T02:32:12.005Z,38.74
2019-05-25T02:33:11.997Z,38.75
2019-05-25T02:34:11.989Z,38.79
2019-05-25T02:35:11.982Z,38.53
2019-05-25T02:36:12.024Z,38.70
2019-05-25T02:37:11.969Z,38.80
2019-05-25T02:38:11.985Z,39.29
2019-05-25T02:39:11.979Z,38.56
2019-05-25T02:40:11.975Z,39.12
2019-05-25T02:41:11.966Z,38.60
2019-05-25T02:42:11.962Z,38.73
2019-05-25T02:43:11.955Z,38.61
2019-05-25T02:44:11.948Z,38.60
2019-05-25T02:45:11.941Z,38.74
2019-05-25T02:46:11.936Z,38.65
2019-05-25T02:47:11.930Z,38.86
2019-05-25T02:48:11.925Z,38.80
2019-05-25T02:49:11.916Z,38.65
2019-05-25T02:50:11.909Z,38.95
2019-05-25T02:51:11.909Z,38.57
2019-05-25T02:52:11.904Z,38.62
2019-05-25T02:53:11.891Z,39.23
2019-05-25T02:54:11.887Z,38.80
2019-05-25T02:55:11.875Z,38.62
2019-05-25T02:56:11.873Z,38.99
2019-05-25T02:57:11.863Z,38.87
2019-05-25T02:58:11.859Z,38.81
2019-05-25T02:59:11.854Z,38.61
2019-05-25T03:00:11.902Z,38.89
2019-05-25T03:01:11.837Z,38.72
2019-05-25T03:02:11.833Z,38.64
2019-05-25T03:03:11.825Z,38.95
2019-05-25T03:04:11.817Z,38.92
2019-05-25T03:05:11.812Z,39.18
2019-05-25T03:06:12.081Z,39.01
2019-05-25T03:07:11.800Z,38.68
2019-05-25T03:08:11.793Z,38.97
2019-05-25T03:09:11.786Z,39.09
2019-05-25T03:10:11.791Z,38.81
2019-05-25T03:11:11.776Z,38.69
2019-05-25T03:12:11.768Z,39.12
2019-05-25T03:13:11.763Z,38.73
2019-05-25T03:14:11.759Z,38.69
2019-05-25T03:15:11.747Z,38.75
2019-05-25T03:16:11.741Z,38.67
2019-05-25T03:17:11.735Z,38.97
2019-05-25T03:18:11.728Z,38.69
2019-05-25T03:19:11.721Z,38.62
2019-05-25T03:20:11.715Z,38.65
2019-05-25T03:21:11.708Z,38.86
2019-05-25T03:22:11.702Z,39.22
2019-05-25T03:23:11.696Z,39.15
2019-05-25T03:24:11.690Z,38.96
2019-05-25T03:25:11.683Z,38.49
2019-05-25T03:26:11.672Z,38.86
2019-05-25T03:27:11.669Z,38.78
2019-05-25T03:28:11.659Z,38.63
2019-05-25T03:29:11.653Z,38.49
2019-05-25T03:30:11.665Z,38.79
2019-05-25T03:31:11.640Z,38.84
2019-05-25T03:32:11.639Z,38.48
2019-05-25T03:33:11.638Z,38.82
2019-05-25T03:34:11.624Z,38.71
2019-05-25T03:35:11.623Z,39.37
2019-05-25T03:36:11.610Z,38.92
2019-05-25T03:37:11.604Z,38.43
2019-05-25T03:38:11.615Z,38.52
2019-05-25T03:39:11.587Z,38.75
2019-05-25T03:40:11.582Z,38.61
2019-05-25T03:41:11.573Z,38.94
2019-05-25T03:42:11.569Z,39.20
2019-05-25T03:43:11.560Z,38.80
2019-05-25T03:44:11.554Z,38.51
2019-05-25T03:45:11.551Z,38.75
2019-05-25T03:46:11.547Z,39.67
2019-05-25T03:47:11.558Z,39.08
2019-05-25T03:48:11.547Z,38.50
2019-05-25T03:49:11.539Z,38.44
2019-05-25T03:50:11.535Z,38.81
2019-05-25T03:51:11.527Z,39.33
2019-05-25T03:52:11.565Z,39.09
2019-05-25T03:53:11.561Z,38.74
2019-05-25T03:54:11.531Z,38.44
2019-05-25T03:55:11.524Z,39.04
2019-05-25T03:56:11.518Z,38.66
2019-05-25T03:57:11.514Z,38.86
2019-05-25T03:58:11.508Z,38.59
2019-05-25T03:59:11.497Z,39.19
2019-05-25T04:00:11.491Z,38.69
2019-05-25T04:01:11.532Z,38.44
2019-05-25T04:02:11.496Z,38.61
2019-05-25T04:03:11.473Z,38.46
2019-05-25T04:04:11.470Z,38.44
2019-05-25T04:05:11.461Z,38.40
2019-05-25T04:06:11.456Z,38.83
2019-05-25T04:07:11.447Z,39.91
2019-05-25T04:08:11.443Z,38.43
2019-05-25T04:09:11.436Z,38.46
2019-05-25T04:10:11.433Z,38.50
2019-05-25T04:11:11.420Z,39.34
2019-05-25T04:12:11.418Z,38.90
2019-05-25T04:13:11.408Z,38.88
2019-05-25T04:14:11.399Z,38.76
2019-05-25T04:15:11.399Z,38.79
2019-05-25T04:16:11.389Z,38.80
2019-05-25T04:17:11.377Z,38.83
2019-05-25T04:18:11.373Z,38.62
2019-05-25T04:19:11.365Z,38.57
2019-05-25T04:20:11.361Z,38.85
2019-05-25T04:21:11.364Z,38.51
2019-05-25T04:22:11.346Z,39.06
2019-05-25T04:23:11.342Z,38.47
2019-05-25T04:24:11.333Z,39.04
2019-05-25T04:25:11.340Z,39.79
2019-05-25T04:26:22.118Z,39.11
2019-05-25T04:28:39.146Z,38.46
2019-05-25T04:29:39.080Z,38.45
2019-05-25T04:30:39.084Z,38.67
2019-05-25T04:31:39.064Z,38.56
2019-05-25T04:32:39.061Z,38.65
2019-05-25T04:33:39.051Z,39.96
2019-05-25T04:34:39.044Z,39.09
2019-05-25T04:35:39.037Z,40.00
2019-05-25T04:36:39.032Z,38.82
2019-05-25T04:37:39.026Z,38.79
2019-05-25T04:38:39.065Z,38.54
2019-05-25T04:39:39.012Z,39.29
2019-05-25T04:40:39.008Z,38.69
2019-05-25T04:41:39.001Z,38.36
2019-05-25T04:42:38.995Z,38.87
2019-05-25T04:43:38.988Z,38.53
2019-05-25T04:44:38.982Z,38.74
2019-05-25T04:45:38.988Z,39.51
2019-05-25T04:46:38.971Z,38.53
2019-05-25T04:47:39.020Z,38.97
2019-05-25T04:48:38.958Z,38.29
2019-05-25T04:49:38.952Z,38.31
2019-05-25T04:50:38.942Z,38.24
2019-05-25T04:51:38.935Z,39.01
2019-05-25T04:52:41.440Z,39.07
2019-05-25T04:53:38.993Z,38.52
2019-05-25T04:54:38.936Z,38.63
2019-05-25T04:55:38.929Z,38.92
2019-05-25T04:56:40.204Z,38.61
2019-05-25T04:57:38.912Z,39.35
2019-05-25T04:58:38.907Z,38.98
2019-05-25T04:59:38.955Z,39.08
2019-05-25T05:00:38.903Z,38.62
2019-05-25T05:01:38.888Z,39.42
2019-05-25T05:02:38.881Z,39.01
2019-05-25T05:03:38.873Z,38.41
2019-05-25T05:04:38.866Z,38.38
2019-05-25T05:05:38.861Z,38.58
2019-05-25T05:06:38.857Z,38.77
2019-05-25T05:07:38.848Z,38.49
2019-05-25T05:08:38.840Z,38.66
2019-05-25T05:09:38.840Z,38.26
2019-05-25T05:10:38.828Z,38.89
2019-05-25T05:11:38.826Z,39.10
2019-05-25T05:12:38.819Z,40.01
2019-05-25T05:13:38.810Z,40.93
2019-05-25T05:14:38.802Z,38.71
2019-05-25T05:15:38.797Z,38.93
2019-05-25T05:16:38.791Z,38.27
2019-05-25T05:17:38.838Z,39.07
2019-05-25T05:18:38.780Z,38.57
2019-05-25T05:19:38.778Z,38.03
2019-05-25T05:20:38.766Z,38.96
2019-05-25T05:21:38.785Z,39.46
2019-05-25T05:22:38.750Z,38.58
2019-05-25T05:23:38.770Z,38.03
2019-05-25T05:24:38.763Z,38.19
2019-05-25T05:25:38.756Z,38.39
2019-05-25T05:26:52.810Z,38.98
2019-05-25T05:29:06.538Z,38.72
2019-05-25T05:30:06.476Z,38.20
2019-05-25T05:31:20.977Z,38.07
2019-05-25T05:33:33.691Z,38.71
2019-05-25T05:34:33.681Z,38.09
2019-05-25T05:35:33.673Z,38.91
2019-05-25T05:36:33.667Z,38.67
2019-05-25T05:37:33.659Z,39.76
2019-05-25T05:38:33.650Z,39.06
2019-05-25T05:39:33.646Z,38.93
2019-05-25T05:40:33.639Z,40.24
2019-05-25T05:41:33.633Z,38.91
2019-05-25T05:42:33.625Z,39.91
2019-05-25T05:43:33.616Z,40.02
2019-05-25T05:44:33.608Z,39.83
2019-05-25T05:45:33.601Z,40.06
2019-05-25T05:46:33.644Z,41.91
2019-05-25T05:47:33.586Z,39.17
2019-05-25T05:48:33.618Z,38.99
2019-05-25T05:49:33.575Z,39.25
2019-05-25T05:50:33.564Z,39.69
2019-05-25T05:51:33.559Z,38.61
2019-05-25T05:52:33.603Z,40.16
2019-05-25T05:53:33.545Z,40.20
2019-05-25T05:54:33.540Z,39.68
2019-05-25T05:55:33.534Z,40.24
2019-05-25T05:56:33.532Z,40.18
2019-05-25T05:57:33.520Z,40.34
2019-05-25T05:58:33.514Z,40.05
2019-05-25T05:59:33.506Z,40.57
2019-05-25T06:00:33.500Z,39.83
2019-05-25T06:01:33.509Z,39.79
2019-05-25T06:02:33.487Z,39.91
2019-05-25T06:03:33.479Z,40.39
2019-05-25T06:04:33.472Z,39.39
2019-05-25T06:05:33.469Z,39.67
2019-05-25T06:06:33.460Z,39.27
2019-05-25T06:07:33.478Z,38.65
2019-05-25T06:08:33.471Z,39.12
2019-05-25T06:09:33.468Z,40.12
2019-05-25T06:10:33.460Z,40.25
2019-05-25T06:11:33.453Z,39.40
2019-05-25T06:12:33.448Z,40.18
2019-05-25T06:13:33.439Z,40.07
2019-05-25T06:14:33.436Z,39.28
2019-05-25T06:15:33.429Z,40.29
2019-05-25T06:16:33.423Z,40.83
2019-05-25T06:17:33.426Z,39.67
2019-05-25T06:18:33.410Z,39.79
2019-05-25T06:19:33.404Z,40.02
2019-05-25T06:20:33.405Z,39.36
2019-05-25T06:21:33.439Z,40.77
2019-05-25T06:22:33.385Z,39.75
2019-05-25T06:23:33.379Z,39.08
2019-05-25T06:24:33.373Z,39.04
2019-05-25T06:25:33.366Z,39.60
2019-05-25T06:26:33.360Z,39.45
2019-05-25T06:27:33.353Z,38.86
2019-05-25T06:28:33.347Z,39.82
2019-05-25T06:29:33.340Z,39.11
2019-05-25T06:30:33.342Z,39.14
2019-05-25T06:31:33.330Z,38.79
2019-05-25T06:32:33.321Z,39.91
2019-05-25T06:33:33.318Z,40.53
2019-05-25T06:34:33.370Z,39.31
2019-05-25T06:35:33.304Z,40.29
2019-05-25T06:36:33.299Z,39.40
2019-05-25T06:37:33.290Z,40.20
2019-05-25T06:38:33.284Z,39.00
2019-05-25T06:39:33.276Z,39.53
2019-05-25T06:40:33.272Z,39.40
2019-05-25T06:41:33.266Z,39.77
2019-05-25T06:42:33.257Z,39.92
2019-05-25T06:43:33.249Z,39.71
2019-05-25T06:44:33.244Z,39.39
2019-05-25T06:45:33.240Z,39.06
2019-05-25T06:46:33.282Z,39.41
2019-05-25T06:47:33.225Z,39.04
2019-05-25T06:48:33.218Z,39.67
2019-05-25T06:49:33.235Z,40.18
2019-05-25T06:50:33.248Z,39.67
2019-05-25T06:51:33.241Z,40.42
2019-05-25T06:52:33.235Z,39.64
2019-05-25T06:53:33.227Z,39.75
2019-05-25T06:54:33.222Z,39.26
2019-05-25T06:55:33.214Z,40.00
2019-05-25T06:56:33.209Z,40.46
2019-05-25T06:57:42.552Z,39.64
2019-05-25T07:00:00.996Z,40.24
2019-05-25T07:01:00.995Z,39.42
2019-05-25T07:02:00.985Z,39.27
2019-05-25T07:03:00.979Z,39.72
2019-05-25T07:04:00.973Z,41.20
2019-05-25T07:05:00.965Z,39.24
2019-05-25T07:06:00.960Z,39.89
2019-05-25T07:07:00.951Z,39.40
2019-05-25T07:08:00.946Z,39.41
2019-05-25T07:09:00.940Z,40.22
2019-05-25T07:10:00.982Z,39.74
2019-05-25T07:11:00.927Z,39.63
2019-05-25T07:12:00.918Z,40.37
2019-05-25T07:13:00.913Z,40.04
2019-05-25T07:14:00.912Z,40.45
2019-05-25T07:15:00.900Z,39.73
2019-05-25T07:16:00.894Z,40.24
2019-05-25T07:17:00.891Z,40.25
2019-05-25T07:18:00.883Z,39.99
2019-05-25T07:19:00.878Z,40.42
2019-05-25T07:20:00.873Z,40.38
2019-05-25T07:21:00.865Z,40.44
2019-05-25T07:22:00.861Z,39.94
2019-05-25T07:23:00.908Z,40.22
2019-05-25T07:24:00.847Z,40.03
2019-05-25T07:25:00.841Z,40.45
2019-05-25T07:26:00.842Z,39.75
2019-05-25T07:27:00.828Z,39.99
2019-05-25T07:28:00.822Z,41.28
2019-05-25T07:29:00.816Z,39.46
2019-05-25T07:30:00.809Z,39.48
2019-05-25T07:31:00.800Z,39.94
2019-05-25T07:32:00.793Z,40.00
2019-05-25T07:33:00.788Z,39.37
2019-05-25T07:34:00.835Z,39.89
2019-05-25T07:35:00.777Z,40.68
2019-05-25T07:36:00.775Z,40.02
2019-05-25T07:37:00.764Z,40.80
2019-05-25T07:38:00.756Z,39.77
2019-05-25T07:39:00.750Z,39.53
2019-05-25T07:40:00.741Z,40.83
2019-05-25T07:41:00.735Z,39.94
2019-05-25T07:42:00.801Z,39.70
2019-05-25T07:43:00.720Z,39.57
2019-05-25T07:44:00.717Z,39.70
2019-05-25T07:45:00.710Z,39.58
2019-05-25T07:46:00.703Z,39.60
2019-05-25T07:47:00.697Z,39.76
2019-05-25T07:48:00.691Z,40.06
2019-05-25T07:49:00.681Z,39.41
2019-05-25T07:50:00.679Z,39.82
2019-05-25T07:51:00.671Z,40.50
2019-05-25T07:52:02.823Z,41.30
2019-05-25T07:53:00.661Z,41.02
2019-05-25T07:54:00.649Z,39.42
2019-05-25T07:55:00.643Z,41.98
2019-05-25T07:56:00.636Z,40.53
2019-05-25T07:57:00.631Z,40.30
2019-05-25T07:58:15.836Z,39.41
2019-05-25T08:00:28.340Z,39.97
2019-05-25T08:01:28.335Z,39.14
2019-05-25T08:02:28.327Z,39.10
2019-05-25T08:03:28.322Z,39.84
2019-05-25T08:04:28.317Z,39.36
2019-05-25T08:05:28.312Z,40.10
2019-05-25T08:06:28.304Z,40.82
2019-05-25T08:08:56.121Z,39.99
2019-05-25T08:09:56.012Z,39.79
2019-05-25T08:10:56.007Z,39.93
2019-05-25T08:11:56.008Z,39.37
2019-05-25T08:12:55.998Z,39.78
2019-05-25T08:13:55.988Z,39.73
2019-05-25T08:14:55.982Z,39.66
2019-05-25T08:15:55.974Z,39.36
2019-05-25T08:16:55.969Z,39.88
2019-05-25T08:17:55.960Z,39.47
2019-05-25T08:18:55.958Z,39.50
2019-05-25T08:19:55.966Z,39.51
2019-05-25T08:20:55.942Z,40.21
2019-05-25T08:21:55.940Z,39.90
2019-05-25T08:22:55.928Z,39.21
2019-05-25T08:23:55.921Z,39.50
2019-05-25T08:24:55.916Z,39.30
2019-05-25T08:25:55.911Z,38.94
2019-05-25T08:26:55.906Z,40.18
2019-05-25T08:27:55.900Z,39.78
2019-05-25T08:28:55.899Z,39.91
2019-05-25T08:29:55.893Z,39.36
2019-05-25T08:30:55.888Z,41.55
2019-05-25T08:31:55.925Z,39.91
2019-05-25T08:32:55.920Z,39.70
2019-05-25T08:33:55.864Z,39.33
2019-05-25T08:34:55.858Z,39.75
2019-05-25T08:35:55.849Z,39.34
2019-05-25T08:36:55.847Z,39.41
2019-05-25T08:37:55.842Z,39.48
2019-05-25T08:38:55.882Z,40.26
2019-05-25T08:39:55.827Z,40.55
2019-05-25T08:40:55.822Z,40.13
2019-05-25T08:41:55.815Z,41.39
2019-05-25T08:42:55.808Z,39.72
2019-05-25T08:43:55.801Z,40.03
2019-05-25T08:44:55.796Z,41.83
2019-05-25T08:45:55.790Z,40.13
2019-05-25T08:46:55.810Z,40.24
2019-05-25T08:47:57.163Z,40.57
2019-05-25T08:48:55.770Z,40.51
2019-05-25T08:49:55.768Z,40.05
2019-05-25T08:50:59.375Z,39.82
2019-05-25T08:51:55.756Z,39.85
2019-05-25T08:52:55.749Z,40.42
2019-05-25T08:53:55.782Z,40.24
2019-05-25T08:54:56.727Z,40.28
2019-05-25T08:55:55.752Z,40.29
2019-05-25T08:56:55.871Z,40.06
2019-05-25T08:57:55.738Z,40.44
2019-05-25T08:58:55.837Z,40.06
2019-05-25T08:59:55.725Z,40.20
2019-05-25T09:00:55.716Z,39.97
2019-05-25T09:01:55.713Z,40.59
2019-05-25T09:02:55.713Z,40.11
2019-05-25T09:03:55.700Z,40.48
2019-05-25T09:04:55.695Z,40.97
2019-05-25T09:05:55.688Z,40.96
2019-05-25T09:06:55.680Z,40.72
2019-05-25T09:07:55.755Z,41.02
2019-05-25T09:08:55.721Z,40.89
2019-05-25T09:09:55.663Z,40.61
2019-05-25T09:10:55.658Z,40.80
2019-05-25T09:11:55.648Z,41.28
2019-05-25T09:12:55.646Z,40.86
2019-05-25T09:13:55.641Z,41.70
2019-05-25T09:14:55.637Z,41.02
2019-05-25T09:15:55.649Z,40.62
2019-05-25T09:16:55.624Z,40.66
2019-05-25T09:17:55.615Z,40.60
2019-05-25T09:18:55.612Z,40.53
2019-05-25T09:19:55.605Z,40.96
2019-05-25T09:20:55.608Z,41.84
2019-05-25T09:22:02.410Z,41.47
2019-05-25T09:24:23.323Z,41.60
2019-05-25T09:25:23.317Z,41.36
2019-05-25T09:26:23.313Z,41.04
2019-05-25T09:27:23.308Z,41.53
2019-05-25T09:28:23.299Z,41.56
2019-05-25T09:29:23.296Z,42.52
2019-05-25T09:30:23.288Z,41.16
2019-05-25T09:31:23.283Z,40.82
2019-05-25T09:32:23.275Z,40.37
2019-05-25T09:33:23.275Z,40.84
2019-05-25T09:34:23.264Z,41.79
2019-05-25T09:35:23.260Z,41.81
2019-05-25T09:36:23.253Z,41.03
2019-05-25T09:37:23.253Z,40.17
2019-05-25T09:38:23.243Z,40.82
2019-05-25T09:39:23.234Z,41.67
2019-05-25T09:40:23.232Z,41.95
2019-05-25T09:41:23.222Z,41.91
2019-05-25T09:42:23.217Z,41.70
2019-05-25T09:43:23.212Z,41.19
2019-05-25T09:44:23.256Z,40.61
2019-05-25T09:45:23.198Z,40.75
2019-05-25T09:46:23.194Z,41.10
2019-05-25T09:47:23.188Z,40.27
2019-05-25T09:48:23.197Z,40.77
2019-05-25T09:49:23.182Z,40.31
2019-05-25T09:50:23.175Z,39.38
2019-05-25T09:51:23.169Z,40.58
2019-05-25T09:52:23.163Z,40.20
2019-05-25T09:53:23.163Z,40.37
2019-05-25T09:54:23.157Z,40.36
2019-05-25T09:55:23.153Z,40.89
2019-05-25T09:56:23.144Z,40.22
2019-05-25T09:57:23.139Z,40.12
2019-05-25T09:58:23.131Z,39.81
2019-05-25T09:59:23.128Z,40.53
2019-05-25T10:00:23.122Z,40.48
2019-05-25T10:01:23.117Z,40.45
2019-05-25T10:02:23.162Z,40.50
2019-05-25T10:03:23.100Z,40.56
2019-05-25T10:04:23.096Z,40.27
2019-05-25T10:05:23.123Z,40.38
2019-05-25T10:06:23.083Z,40.12
2019-05-25T10:07:23.081Z,40.01
2019-05-25T10:08:23.083Z,39.91
2019-05-25T10:09:23.076Z,39.54
2019-05-25T10:10:23.068Z,39.86
2019-05-25T10:11:23.062Z,39.37
2019-05-25T10:12:23.057Z,40.48
2019-05-25T10:13:23.054Z,40.45
2019-05-25T10:14:23.045Z,40.52
2019-05-25T10:15:23.040Z,40.25
2019-05-25T10:16:23.036Z,40.54
2019-05-25T10:17:23.032Z,40.03
2019-05-25T10:18:23.027Z,40.64
2019-05-25T10:19:23.021Z,40.88
2019-05-25T10:20:23.067Z,40.47
2019-05-25T10:21:23.013Z,40.79
2019-05-25T10:22:23.007Z,42.34
2019-05-25T10:23:23.001Z,40.87
2019-05-25T10:24:22.997Z,40.51
2019-05-25T10:25:22.990Z,40.91
2019-05-25T10:26:23.275Z,40.35
2019-05-25T10:27:22.977Z,39.99
2019-05-25T10:28:22.974Z,40.55
2019-05-25T10:29:36.120Z,40.49
2019-05-25T10:30:24.960Z,40.32
2019-05-25T10:31:22.958Z,40.12
2019-05-25T10:32:22.948Z,40.24
2019-05-25T10:33:22.945Z,40.75
2019-05-25T10:34:22.936Z,40.30
2019-05-25T10:35:22.932Z,39.77
2019-05-25T10:36:22.928Z,39.58
2019-05-25T10:37:22.924Z,40.14
2019-05-25T10:38:22.919Z,40.65
2019-05-25T10:39:22.914Z,40.18
2019-05-25T10:40:22.906Z,40.51
2019-05-25T10:41:22.898Z,40.41
2019-05-25T10:42:22.913Z,40.98
2019-05-25T10:43:22.909Z,41.17
2019-05-25T10:44:22.897Z,40.60
2019-05-25T10:45:22.903Z,40.17
2019-05-25T10:46:22.884Z,40.09
2019-05-25T10:47:22.888Z,40.14
2019-05-25T10:48:22.917Z,40.48
2019-05-25T10:49:22.870Z,40.51
2019-05-25T10:50:22.864Z,41.76
2019-05-25T10:51:22.902Z,40.26
2019-05-25T10:52:22.870Z,40.58
2019-05-25T10:53:22.865Z,40.56
2019-05-25T10:54:22.857Z,39.84
2019-05-25T10:55:22.852Z,41.03
2019-05-25T10:56:22.896Z,40.31
2019-05-25T10:57:22.852Z,40.63
2019-05-25T10:58:22.847Z,41.22
2019-05-25T10:59:22.840Z,40.39
2019-05-25T11:00:22.838Z,40.53
2019-05-25T11:01:22.827Z,40.93
2019-05-25T11:02:22.824Z,40.52
2019-05-25T11:03:22.815Z,42.34
2019-05-25T11:04:22.810Z,40.62
2019-05-25T11:05:22.802Z,39.78
2019-05-25T11:06:22.795Z,38.95
2019-05-25T11:07:22.790Z,39.76
2019-05-25T11:08:22.784Z,39.12
2019-05-25T11:09:22.792Z,39.27
2019-05-25T11:10:22.771Z,39.73
2019-05-25T11:11:22.767Z,39.32
2019-05-25T11:12:25.891Z,40.60
2019-05-25T11:13:22.753Z,39.19
2019-05-25T11:14:22.744Z,39.16
2019-05-25T11:15:22.742Z,40.40
2019-05-25T11:16:22.734Z,39.55
2019-05-25T11:17:22.728Z,39.36
2019-05-25T11:18:22.721Z,39.01
2019-05-25T11:19:24.356Z,38.89
2019-05-25T11:20:22.708Z,40.13
2019-05-25T11:21:22.700Z,39.90
2019-05-25T11:22:22.712Z,39.35
2019-05-25T11:23:22.688Z,39.91
2019-05-25T11:24:22.689Z,39.61
2019-05-25T11:25:22.680Z,39.76
2019-05-25T11:26:22.670Z,39.47
2019-05-25T11:27:22.664Z,39.52
2019-05-25T11:28:22.662Z,40.26
2019-05-25T11:29:22.650Z,40.62
2019-05-25T11:30:22.643Z,40.09
2019-05-25T11:31:22.639Z,40.23
2019-05-25T11:32:22.629Z,39.61
2019-05-25T11:33:22.627Z,40.43
2019-05-25T11:34:22.621Z,40.02
2019-05-25T11:35:22.613Z,39.62
2019-05-25T11:36:22.606Z,39.90
2019-05-25T11:37:22.601Z,40.25
2019-05-25T11:38:22.600Z,39.74
2019-05-25T11:39:22.588Z,40.13
2019-05-25T11:40:22.585Z,40.21
2019-05-25T11:41:22.579Z,42.92
2019-05-25T11:42:22.571Z,40.14
2019-05-25T11:43:22.566Z,40.47
2019-05-25T11:44:22.562Z,40.30
2019-05-25T11:45:22.555Z,40.10
2019-05-25T11:46:22.547Z,39.82
2019-05-25T11:47:22.545Z,40.06
2019-05-25T11:48:22.532Z,39.59
2019-05-25T11:49:23.121Z,39.77
2019-05-25T11:50:22.556Z,39.38
2019-05-25T11:51:22.514Z,40.49
2019-05-25T11:53:22.502Z,39.46
2019-05-25T11:54:22.493Z,39.99
2019-05-25T11:56:22.487Z,41.91
2019-05-25T11:57:22.477Z,40.04
2019-05-25T11:58:22.468Z,40.34
2019-05-25T11:59:22.465Z,40.02
2019-05-25T12:00:25.430Z,40.04
2019-05-25T12:01:22.460Z,40.11
2019-05-25T12:02:24.448Z,40.90
2019-05-25T12:03:22.441Z,39.69
2019-05-25T12:04:22.435Z,40.06
2019-05-25T12:05:22.426Z,39.94
2019-05-25T12:06:22.420Z,40.58
2019-05-25T12:07:22.412Z,40.30
2019-05-25T12:09:22.399Z,40.61
2019-05-25T12:10:22.394Z,39.94
2019-05-25T12:11:22.385Z,40.24
2019-05-25T12:12:22.381Z,40.99
2019-05-25T12:13:22.373Z,40.13
2019-05-25T12:14:22.366Z,41.25
2019-05-25T12:15:22.360Z,40.15
2019-05-25T12:17:50.127Z,40.98
2019-05-25T12:18:50.119Z,40.01
2019-05-25T12:19:50.114Z,40.03
2019-05-25T12:20:50.107Z,40.10
2019-05-25T12:21:50.102Z,42.11
2019-05-25T12:22:50.383Z,40.55
2019-05-25T12:23:50.100Z,40.40
2019-05-25T12:24:50.085Z,40.74
2019-05-25T12:25:50.128Z,40.32
2019-05-25T12:26:50.069Z,40.27
2019-05-25T12:27:50.062Z,43.26
2019-05-25T12:28:50.055Z,40.83
2019-05-25T12:29:50.051Z,40.29
2019-05-25T12:30:50.047Z,40.70
2019-05-25T12:31:50.037Z,41.16
2019-05-25T12:32:50.031Z,40.53
2019-05-25T12:33:50.023Z,41.23
2019-05-25T12:34:50.019Z,40.49
2019-05-25T12:35:50.012Z,40.05
2019-05-25T12:36:50.006Z,40.19
2019-05-25T12:37:50.049Z,40.68
2019-05-25T12:38:49.995Z,40.71
2019-05-25T12:39:49.983Z,40.56
2019-05-25T12:40:53.675Z,41.02
2019-05-25T12:41:49.970Z,40.19
2019-05-25T12:42:49.971Z,40.15
2019-05-25T12:43:50.007Z,41.56
2019-05-25T12:44:49.995Z,40.43
2019-05-25T12:45:49.946Z,40.96
2019-05-25T12:46:49.942Z,40.41
2019-05-25T12:47:49.935Z,40.54
2019-05-25T12:48:49.933Z,40.68
2019-05-25T12:49:51.105Z,41.43
2019-05-25T12:50:49.918Z,41.66
2019-05-25T12:51:49.912Z,41.24
2019-05-25T12:52:50.011Z,40.40
2019-05-25T12:53:49.901Z,41.26
2019-05-25T12:54:49.892Z,41.12
2019-05-25T12:55:49.889Z,41.44
2019-05-25T12:56:49.879Z,42.32
2019-05-25T12:57:51.471Z,41.00
2019-05-25T12:58:50.355Z,45.26
2019-05-25T12:59:49.863Z,47.59
2019-05-25T13:00:56.120Z,43.88
2019-05-25T13:01:51.899Z,40.64
2019-05-25T13:02:49.843Z,41.93
2019-05-25T13:03:49.837Z,44.22
2019-05-25T13:04:49.883Z,50.00
2019-05-25T13:05:49.823Z,46.08
2019-05-25T13:06:49.817Z,41.95
2019-05-25T13:07:49.811Z,43.01
2019-05-25T13:08:49.806Z,43.72
2019-05-25T13:09:49.800Z,41.90